sensor_id;sensor_type;location;lat;lon;timestamp;P1;durP1;ratioP1;P2;durP2;ratioP2
63738;SDS011;68816;45.558;10.070;2023-06-01T00:02:05;17.35;;;12.20;;
63738;SDS011;68816;45.558;10.070;2023-06-01T00:04:32;15.27;;;12.60;;
63738;SDS011;68816;45.558;10.070;2023-06-01T00:07:00;17.95;;;12.27;;
63738;SDS011;68816;45.558;10.070;2023-06-01T00:09:26;16.98;;;11.98;;
63738;SDS011;68816;45.558;10.070;2023-06-01T00:11:56;16.13;;;11.73;;
63738;SDS011;68816;45.558;10.070;2023-06-01T00:14:23;19.40;;;12.98;;
63738;SDS011;68816;45.558;10.070;2023-06-01T00:16:49;18.35;;;13.13;;
63738;SDS011;68816;45.558;10.070;2023-06-01T00:19:18;19.90;;;11.80;;
63738;SDS011;68816;45.558;10.070;2023-06-01T00:21:47;18.98;;;13.05;;
63738;SDS011;68816;45.558;10.070;2023-06-01T00:24:13;16.90;;;12.32;;
63738;SDS011;68816;45.558;10.070;2023-06-01T00:26:39;15.02;;;12.68;;
63738;SDS011;68816;45.558;10.070;2023-06-01T00:29:06;16.42;;;12.85;;
63738;SDS011;68816;45.558;10.070;2023-06-01T00:31:33;16.40;;;11.57;;
63738;SDS011;68816;45.558;10.070;2023-06-01T00:33:59;17.55;;;11.13;;
63738;SDS011;68816;45.558;10.070;2023-06-01T00:36:24;14.77;;;10.98;;
63738;SDS011;68816;45.558;10.070;2023-06-01T00:38:50;14.82;;;10.65;;
63738;SDS011;68816;45.558;10.070;2023-06-01T00:41:15;15.25;;;11.20;;
63738;SDS011;68816;45.558;10.070;2023-06-01T00:43:42;16.95;;;11.50;;
63738;SDS011;68816;45.558;10.070;2023-06-01T00:46:09;14.68;;;11.93;;
63738;SDS011;68816;45.558;10.070;2023-06-01T00:48:42;15.17;;;11.87;;
63738;SDS011;68816;45.558;10.070;2023-06-01T00:51:07;17.25;;;12.82;;
63738;SDS011;68816;45.558;10.070;2023-06-01T00:53:33;18.77;;;13.13;;
63738;SDS011;68816;45.558;10.070;2023-06-01T00:55:59;16.45;;;12.50;;
63738;SDS011;68816;45.558;10.070;2023-06-01T00:58:26;18.73;;;13.43;;
63738;SDS011;68816;45.558;10.070;2023-06-01T01:00:54;18.30;;;12.73;;
63738;SDS011;68816;45.558;10.070;2023-06-01T01:03:21;17.38;;;11.95;;
63738;SDS011;68816;45.558;10.070;2023-06-01T01:05:51;17.40;;;11.57;;
63738;SDS011;68816;45.558;10.070;2023-06-01T01:11:40;18.13;;;10.27;;
63738;SDS011;68816;45.558;10.070;2023-06-01T01:14:14;15.23;;;10.45;;
63738;SDS011;68816;45.558;10.070;2023-06-01T01:16:53;14.05;;;10.80;;
63738;SDS011;68816;45.558;10.070;2023-06-01T01:28:10;16.63;;;10.88;;
63738;SDS011;68816;45.558;10.070;2023-06-01T01:31:02;15.77;;;11.45;;
63738;SDS011;68816;45.558;10.070;2023-06-01T01:33:32;18.70;;;11.63;;
63738;SDS011;68816;45.558;10.070;2023-06-01T01:35:59;20.92;;;11.88;;
63738;SDS011;68816;45.558;10.070;2023-06-01T01:38:30;17.13;;;11.43;;
63738;SDS011;68816;45.558;10.070;2023-06-01T01:41:04;15.68;;;11.90;;
63738;SDS011;68816;45.558;10.070;2023-06-01T01:43:35;19.20;;;12.30;;
63738;SDS011;68816;45.558;10.070;2023-06-01T01:51:36;18.73;;;11.85;;
63738;SDS011;68816;45.558;10.070;2023-06-01T01:54:10;17.25;;;11.75;;
63738;SDS011;68816;45.558;10.070;2023-06-01T01:56:38;20.60;;;12.38;;
63738;SDS011;68816;45.558;10.070;2023-06-01T01:59:04;20.60;;;11.90;;
63738;SDS011;68816;45.558;10.070;2023-06-01T02:01:31;19.88;;;12.15;;
63738;SDS011;68816;45.558;10.070;2023-06-01T02:04:00;17.85;;;12.20;;
63738;SDS011;68816;45.558;10.070;2023-06-01T02:06:28;20.40;;;12.32;;
63738;SDS011;68816;45.558;10.070;2023-06-01T02:08:55;20.45;;;11.68;;
63738;SDS011;68816;45.558;10.070;2023-06-01T02:11:23;17.75;;;11.43;;
63738;SDS011;68816;45.558;10.070;2023-06-01T02:13:49;17.83;;;12.02;;
63738;SDS011;68816;45.558;10.070;2023-06-01T02:16:16;18.75;;;12.00;;
63738;SDS011;68816;45.558;10.070;2023-06-01T02:18:46;20.58;;;11.30;;
63738;SDS011;68816;45.558;10.070;2023-06-01T02:21:12;18.33;;;11.65;;
63738;SDS011;68816;45.558;10.070;2023-06-01T02:23:40;16.35;;;11.10;;
63738;SDS011;68816;45.558;10.070;2023-06-01T02:26:10;17.73;;;11.25;;
63738;SDS011;68816;45.558;10.070;2023-06-01T02:28:37;21.85;;;11.20;;
63738;SDS011;68816;45.558;10.070;2023-06-01T02:31:03;16.75;;;12.07;;
63738;SDS011;68816;45.558;10.070;2023-06-01T02:33:30;20.58;;;12.43;;
63738;SDS011;68816;45.558;10.070;2023-06-01T02:35:55;21.55;;;12.20;;
63738;SDS011;68816;45.558;10.070;2023-06-01T02:38:21;17.77;;;12.68;;
63738;SDS011;68816;45.558;10.070;2023-06-01T02:40:47;18.70;;;12.82;;
63738;SDS011;68816;45.558;10.070;2023-06-01T02:43:15;19.95;;;12.40;;
63738;SDS011;68816;45.558;10.070;2023-06-01T02:45:41;19.27;;;12.55;;
63738;SDS011;68816;45.558;10.070;2023-06-01T02:48:07;19.98;;;12.27;;
63738;SDS011;68816;45.558;10.070;2023-06-01T02:50:32;21.88;;;13.30;;
63738;SDS011;68816;45.558;10.070;2023-06-01T02:53:00;20.95;;;12.40;;
63738;SDS011;68816;45.558;10.070;2023-06-01T02:55:27;21.75;;;12.82;;
63738;SDS011;68816;45.558;10.070;2023-06-01T02:57:52;17.92;;;11.60;;
63738;SDS011;68816;45.558;10.070;2023-06-01T03:00:18;16.65;;;10.93;;
63738;SDS011;68816;45.558;10.070;2023-06-01T03:02:44;14.93;;;10.48;;
63738;SDS011;68816;45.558;10.070;2023-06-01T03:05:13;16.83;;;11.02;;
63738;SDS011;68816;45.558;10.070;2023-06-01T03:07:45;16.73;;;10.35;;
63738;SDS011;68816;45.558;10.070;2023-06-01T03:10:12;15.70;;;11.30;;
63738;SDS011;68816;45.558;10.070;2023-06-01T03:12:40;17.23;;;10.95;;
63738;SDS011;68816;45.558;10.070;2023-06-01T03:15:08;16.83;;;10.73;;
63738;SDS011;68816;45.558;10.070;2023-06-01T03:17:35;17.65;;;10.70;;
63738;SDS011;68816;45.558;10.070;2023-06-01T03:20:02;18.55;;;11.23;;
63738;SDS011;68816;45.558;10.070;2023-06-01T03:22:28;15.45;;;10.80;;
63738;SDS011;68816;45.558;10.070;2023-06-01T03:24:57;15.13;;;11.13;;
63738;SDS011;68816;45.558;10.070;2023-06-01T03:27:23;13.93;;;10.73;;
63738;SDS011;68816;45.558;10.070;2023-06-01T03:29:48;15.77;;;10.48;;
63738;SDS011;68816;45.558;10.070;2023-06-01T03:32:15;14.55;;;10.75;;
63738;SDS011;68816;45.558;10.070;2023-06-01T03:34:40;19.73;;;12.02;;
63738;SDS011;68816;45.558;10.070;2023-06-01T03:37:06;15.13;;;11.13;;
63738;SDS011;68816;45.558;10.070;2023-06-01T03:39:35;17.10;;;10.88;;
63738;SDS011;68816;45.558;10.070;2023-06-01T03:42:00;14.52;;;11.05;;
63738;SDS011;68816;45.558;10.070;2023-06-01T03:44:28;16.67;;;11.52;;
63738;SDS011;68816;45.558;10.070;2023-06-01T03:46:56;16.55;;;10.40;;
63738;SDS011;68816;45.558;10.070;2023-06-01T03:49:23;14.07;;;10.32;;
63738;SDS011;68816;45.558;10.070;2023-06-01T03:51:55;19.25;;;10.80;;
63738;SDS011;68816;45.558;10.070;2023-06-01T03:54:22;15.80;;;10.98;;
63738;SDS011;68816;45.558;10.070;2023-06-01T03:56:49;18.05;;;11.05;;
63738;SDS011;68816;45.558;10.070;2023-06-01T03:59:16;13.00;;;10.35;;
63738;SDS011;68816;45.558;10.070;2023-06-01T04:01:42;15.50;;;11.02;;
63738;SDS011;68816;45.558;10.070;2023-06-01T04:04:08;18.27;;;12.10;;
63738;SDS011;68816;45.558;10.070;2023-06-01T04:06:35;15.88;;;11.65;;
63738;SDS011;68816;45.558;10.070;2023-06-01T04:09:02;18.05;;;10.80;;
63738;SDS011;68816;45.558;10.070;2023-06-01T04:11:32;16.60;;;12.25;;
63738;SDS011;68816;45.558;10.070;2023-06-01T04:13:59;17.25;;;11.65;;
63738;SDS011;68816;45.558;10.070;2023-06-01T04:16:25;17.38;;;11.40;;
63738;SDS011;68816;45.558;10.070;2023-06-01T04:18:52;15.02;;;10.73;;
63738;SDS011;68816;45.558;10.070;2023-06-01T04:21:22;16.15;;;11.15;;
63738;SDS011;68816;45.558;10.070;2023-06-01T04:23:48;11.70;;;10.05;;
63738;SDS011;68816;45.558;10.070;2023-06-01T04:26:16;14.48;;;10.40;;
63738;SDS011;68816;45.558;10.070;2023-06-01T04:28:44;13.88;;;10.30;;
63738;SDS011;68816;45.558;10.070;2023-06-01T04:31:11;14.23;;;10.35;;
63738;SDS011;68816;45.558;10.070;2023-06-01T04:33:44;14.02;;;9.95;;
63738;SDS011;68816;45.558;10.070;2023-06-01T04:36:17;18.38;;;11.00;;
63738;SDS011;68816;45.558;10.070;2023-06-01T04:38:49;18.98;;;10.68;;
63738;SDS011;68816;45.558;10.070;2023-06-01T04:41:20;16.45;;;10.45;;
63738;SDS011;68816;45.558;10.070;2023-06-01T04:43:47;18.60;;;11.13;;
63738;SDS011;68816;45.558;10.070;2023-06-01T04:46:21;14.63;;;10.77;;
63738;SDS011;68816;45.558;10.070;2023-06-01T04:48:51;14.40;;;10.20;;
63738;SDS011;68816;45.558;10.070;2023-06-01T04:51:22;16.98;;;10.05;;
63738;SDS011;68816;45.558;10.070;2023-06-01T04:53:51;14.10;;;10.20;;
63738;SDS011;68816;45.558;10.070;2023-06-01T04:56:21;14.60;;;10.18;;
63738;SDS011;68816;45.558;10.070;2023-06-01T04:58:56;16.70;;;9.75;;
63738;SDS011;68816;45.558;10.070;2023-06-01T05:01:23;13.43;;;9.25;;
63738;SDS011;68816;45.558;10.070;2023-06-01T05:03:55;13.60;;;9.32;;
63738;SDS011;68816;45.558;10.070;2023-06-01T05:06:22;12.73;;;9.30;;
63738;SDS011;68816;45.558;10.070;2023-06-01T05:08:49;11.85;;;9.15;;
63738;SDS011;68816;45.558;10.070;2023-06-01T05:11:16;10.90;;;8.73;;
63738;SDS011;68816;45.558;10.070;2023-06-01T05:13:43;12.80;;;9.25;;
63738;SDS011;68816;45.558;10.070;2023-06-01T05:16:12;11.77;;;9.30;;
63738;SDS011;68816;45.558;10.070;2023-06-01T05:18:42;12.32;;;8.73;;
63738;SDS011;68816;45.558;10.070;2023-06-01T05:21:08;14.18;;;9.20;;
63738;SDS011;68816;45.558;10.070;2023-06-01T05:23:33;12.95;;;9.23;;
63738;SDS011;68816;45.558;10.070;2023-06-01T05:26:00;11.63;;;8.52;;
63738;SDS011;68816;45.558;10.070;2023-06-01T05:28:29;13.65;;;9.05;;
63738;SDS011;68816;45.558;10.070;2023-06-01T05:30:59;11.30;;;8.50;;
63738;SDS011;68816;45.558;10.070;2023-06-01T05:33:25;11.55;;;8.93;;
63738;SDS011;68816;45.558;10.070;2023-06-01T05:35:51;12.70;;;8.70;;
63738;SDS011;68816;45.558;10.070;2023-06-01T05:38:21;12.32;;;8.65;;
63738;SDS011;68816;45.558;10.070;2023-06-01T05:41:01;11.60;;;8.25;;
63738;SDS011;68816;45.558;10.070;2023-06-01T05:43:28;11.70;;;8.25;;
63738;SDS011;68816;45.558;10.070;2023-06-01T05:45:53;10.75;;;8.60;;
63738;SDS011;68816;45.558;10.070;2023-06-01T05:48:19;15.82;;;8.45;;
63738;SDS011;68816;45.558;10.070;2023-06-01T05:50:46;14.10;;;8.50;;
63738;SDS011;68816;45.558;10.070;2023-06-01T05:53:11;10.70;;;8.00;;
63738;SDS011;68816;45.558;10.070;2023-06-01T05:55:37;14.10;;;8.30;;
63738;SDS011;68816;45.558;10.070;2023-06-01T05:58:03;14.82;;;7.93;;
63738;SDS011;68816;45.558;10.070;2023-06-01T06:00:28;13.48;;;7.90;;
63738;SDS011;68816;45.558;10.070;2023-06-01T06:02:55;12.60;;;8.15;;
63738;SDS011;68816;45.558;10.070;2023-06-01T06:05:21;14.50;;;8.10;;
63738;SDS011;68816;45.558;10.070;2023-06-01T06:07:48;11.52;;;8.32;;
63738;SDS011;68816;45.558;10.070;2023-06-01T06:10:13;15.63;;;8.82;;
63738;SDS011;68816;45.558;10.070;2023-06-01T06:12:39;11.23;;;7.85;;
63738;SDS011;68816;45.558;10.070;2023-06-01T06:15:05;10.02;;;7.82;;
63738;SDS011;68816;45.558;10.070;2023-06-01T06:17:32;13.73;;;7.47;;
63738;SDS011;68816;45.558;10.070;2023-06-01T06:19:59;18.23;;;8.20;;
63738;SDS011;68816;45.558;10.070;2023-06-01T06:22:25;16.23;;;8.00;;
63738;SDS011;68816;45.558;10.070;2023-06-01T06:24:50;8.82;;;6.65;;
63738;SDS011;68816;45.558;10.070;2023-06-01T06:27:16;10.40;;;7.82;;
63738;SDS011;68816;45.558;10.070;2023-06-01T06:29:41;11.80;;;8.02;;
63738;SDS011;68816;45.558;10.070;2023-06-01T06:32:07;11.45;;;7.43;;
63738;SDS011;68816;45.558;10.070;2023-06-01T06:34:33;11.45;;;7.75;;
63738;SDS011;68816;45.558;10.070;2023-06-01T06:37:04;13.13;;;7.68;;
63738;SDS011;68816;45.558;10.070;2023-06-01T06:39:31;11.43;;;7.15;;
63738;SDS011;68816;45.558;10.070;2023-06-01T06:41:57;7.88;;;6.53;;
63738;SDS011;68816;45.558;10.070;2023-06-01T06:44:23;8.50;;;6.60;;
63738;SDS011;68816;45.558;10.070;2023-06-01T06:46:49;11.15;;;7.13;;
63738;SDS011;68816;45.558;10.070;2023-06-01T06:49:14;10.60;;;6.45;;
63738;SDS011;68816;45.558;10.070;2023-06-01T06:51:40;9.55;;;6.68;;
63738;SDS011;68816;45.558;10.070;2023-06-01T06:54:07;10.90;;;6.55;;
63738;SDS011;68816;45.558;10.070;2023-06-01T06:57:08;8.75;;;6.20;;
63738;SDS011;68816;45.558;10.070;2023-06-01T06:59:35;7.78;;;6.40;;
63738;SDS011;68816;45.558;10.070;2023-06-01T07:02:07;9.40;;;6.13;;
63738;SDS011;68816;45.558;10.070;2023-06-01T07:04:33;6.90;;;5.68;;
63738;SDS011;68816;45.558;10.070;2023-06-01T07:07:00;8.82;;;6.25;;
63738;SDS011;68816;45.558;10.070;2023-06-01T07:09:28;8.60;;;6.45;;
63738;SDS011;68816;45.558;10.070;2023-06-01T07:11:54;9.80;;;6.57;;
63738;SDS011;68816;45.558;10.070;2023-06-01T07:14:20;9.52;;;6.25;;
63738;SDS011;68816;45.558;10.070;2023-06-01T07:16:45;8.77;;;6.68;;
63738;SDS011;68816;45.558;10.070;2023-06-01T07:19:12;9.98;;;6.38;;
63738;SDS011;68816;45.558;10.070;2023-06-01T07:21:37;11.32;;;6.53;;
63738;SDS011;68816;45.558;10.070;2023-06-01T07:24:04;11.10;;;6.53;;
63738;SDS011;68816;45.558;10.070;2023-06-01T07:26:31;7.88;;;6.00;;
63738;SDS011;68816;45.558;10.070;2023-06-01T07:28:57;7.65;;;6.25;;
63738;SDS011;68816;45.558;10.070;2023-06-01T07:31:25;9.95;;;6.88;;
63738;SDS011;68816;45.558;10.070;2023-06-01T07:33:52;10.50;;;6.43;;
63738;SDS011;68816;45.558;10.070;2023-06-01T07:36:20;9.35;;;6.35;;
63738;SDS011;68816;45.558;10.070;2023-06-01T07:38:49;10.35;;;6.80;;
63738;SDS011;68816;45.558;10.070;2023-06-01T07:41:15;11.02;;;6.60;;
63738;SDS011;68816;45.558;10.070;2023-06-01T07:43:41;10.30;;;6.65;;
63738;SDS011;68816;45.558;10.070;2023-06-01T07:46:07;8.55;;;6.57;;
63738;SDS011;68816;45.558;10.070;2023-06-01T07:48:32;9.02;;;6.78;;
63738;SDS011;68816;45.558;10.070;2023-06-01T07:51:02;9.55;;;6.75;;
63738;SDS011;68816;45.558;10.070;2023-06-01T07:53:28;14.13;;;6.90;;
63738;SDS011;68816;45.558;10.070;2023-06-01T07:55:54;10.95;;;7.07;;
63738;SDS011;68816;45.558;10.070;2023-06-01T07:58:20;11.02;;;6.40;;
63738;SDS011;68816;45.558;10.070;2023-06-01T08:00:45;13.60;;;7.05;;
63738;SDS011;68816;45.558;10.070;2023-06-01T08:03:11;9.07;;;6.65;;
63738;SDS011;68816;45.558;10.070;2023-06-01T08:05:36;10.27;;;6.53;;
63738;SDS011;68816;45.558;10.070;2023-06-01T08:08:03;9.23;;;6.43;;
63738;SDS011;68816;45.558;10.070;2023-06-01T08:10:30;11.88;;;7.13;;
63738;SDS011;68816;45.558;10.070;2023-06-01T08:12:59;10.13;;;7.20;;
63738;SDS011;68816;45.558;10.070;2023-06-01T08:15:25;10.43;;;7.18;;
63738;SDS011;68816;45.558;10.070;2023-06-01T08:17:55;12.00;;;6.88;;
63738;SDS011;68816;45.558;10.070;2023-06-01T08:20:22;10.82;;;6.78;;
63738;SDS011;68816;45.558;10.070;2023-06-01T08:22:48;10.98;;;7.10;;
63738;SDS011;68816;45.558;10.070;2023-06-01T08:25:15;15.38;;;7.22;;
63738;SDS011;68816;45.558;10.070;2023-06-01T08:27:41;13.43;;;7.10;;
63738;SDS011;68816;45.558;10.070;2023-06-01T08:30:07;10.70;;;7.30;;
63738;SDS011;68816;45.558;10.070;2023-06-01T08:32:33;10.02;;;7.13;;
63738;SDS011;68816;45.558;10.070;2023-06-01T08:34:58;8.98;;;7.75;;
63738;SDS011;68816;45.558;10.070;2023-06-01T08:37:24;8.55;;;7.03;;
63738;SDS011;68816;45.558;10.070;2023-06-01T08:39:51;10.18;;;7.43;;
63738;SDS011;68816;45.558;10.070;2023-06-01T08:42:22;8.63;;;6.50;;
63738;SDS011;68816;45.558;10.070;2023-06-01T08:44:54;15.10;;;7.82;;
63738;SDS011;68816;45.558;10.070;2023-06-01T08:47:23;10.38;;;7.85;;
63738;SDS011;68816;45.558;10.070;2023-06-01T08:49:52;10.45;;;7.35;;
63738;SDS011;68816;45.558;10.070;2023-06-01T08:52:20;9.77;;;7.20;;
63738;SDS011;68816;45.558;10.070;2023-06-01T08:54:47;10.43;;;7.80;;
63738;SDS011;68816;45.558;10.070;2023-06-01T08:57:12;8.90;;;6.88;;
63738;SDS011;68816;45.558;10.070;2023-06-01T08:59:39;10.73;;;7.82;;
63738;SDS011;68816;45.558;10.070;2023-06-01T09:02:05;9.63;;;7.43;;
63738;SDS011;68816;45.558;10.070;2023-06-01T09:04:34;12.93;;;8.60;;
63738;SDS011;68816;45.558;10.070;2023-06-01T09:07:02;14.93;;;8.38;;
63738;SDS011;68816;45.558;10.070;2023-06-01T09:09:29;14.25;;;8.77;;
63738;SDS011;68816;45.558;10.070;2023-06-01T09:17:38;11.23;;;8.40;;
63738;SDS011;68816;45.558;10.070;2023-06-01T09:20:05;12.10;;;8.43;;
63738;SDS011;68816;45.558;10.070;2023-06-01T09:22:41;12.68;;;9.23;;
63738;SDS011;68816;45.558;10.070;2023-06-01T09:25:11;13.85;;;10.65;;
63738;SDS011;68816;45.558;10.070;2023-06-01T09:27:49;16.70;;;10.18;;
63738;SDS011;68816;45.558;10.070;2023-06-01T09:30:16;14.82;;;9.75;;
63738;SDS011;68816;45.558;10.070;2023-06-01T09:32:43;10.88;;;7.85;;
63738;SDS011;68816;45.558;10.070;2023-06-01T09:38:07;13.88;;;10.55;;
63738;SDS011;68816;45.558;10.070;2023-06-01T09:40:33;13.95;;;10.00;;
63738;SDS011;68816;45.558;10.070;2023-06-01T09:43:02;11.25;;;9.07;;
63738;SDS011;68816;45.558;10.070;2023-06-01T09:45:43;12.70;;;10.23;;
63738;SDS011;68816;45.558;10.070;2023-06-01T09:48:18;14.75;;;10.20;;
63738;SDS011;68816;45.558;10.070;2023-06-01T09:50:43;14.00;;;10.30;;
63738;SDS011;68816;45.558;10.070;2023-06-01T09:53:09;14.82;;;9.73;;
63738;SDS011;68816;45.558;10.070;2023-06-01T09:55:39;17.08;;;10.57;;
63738;SDS011;68816;45.558;10.070;2023-06-01T09:58:28;15.00;;;10.57;;
63738;SDS011;68816;45.558;10.070;2023-06-01T10:00:53;14.18;;;10.35;;
63738;SDS011;68816;45.558;10.070;2023-06-01T10:03:21;16.08;;;10.60;;
63738;SDS011;68816;45.558;10.070;2023-06-01T10:05:51;16.38;;;10.75;;
63738;SDS011;68816;45.558;10.070;2023-06-01T10:08:18;10.93;;;8.02;;
63738;SDS011;68816;45.558;10.070;2023-06-01T10:10:47;16.25;;;9.23;;
63738;SDS011;68816;45.558;10.070;2023-06-01T10:13:13;14.15;;;11.23;;
63738;SDS011;68816;45.558;10.070;2023-06-01T10:15:43;17.27;;;12.70;;
63738;SDS011;68816;45.558;10.070;2023-06-01T10:18:09;16.17;;;12.43;;
63738;SDS011;68816;45.558;10.070;2023-06-01T10:20:35;15.38;;;12.05;;
63738;SDS011;68816;45.558;10.070;2023-06-01T10:23:03;18.75;;;11.70;;
63738;SDS011;68816;45.558;10.070;2023-06-01T10:25:30;14.48;;;11.75;;
63738;SDS011;68816;45.558;10.070;2023-06-01T10:28:02;13.77;;;10.18;;
63738;SDS011;68816;45.558;10.070;2023-06-01T10:30:32;14.00;;;11.35;;
63738;SDS011;68816;45.558;10.070;2023-06-01T10:32:59;13.55;;;10.68;;
63738;SDS011;68816;45.558;10.070;2023-06-01T10:40:43;16.67;;;13.25;;
63738;SDS011;68816;45.558;10.070;2023-06-01T10:49:10;22.42;;;14.10;;
63738;SDS011;68816;45.558;10.070;2023-06-01T10:51:36;16.85;;;12.63;;
63738;SDS011;68816;45.558;10.070;2023-06-01T10:57:20;17.73;;;12.77;;
63738;SDS011;68816;45.558;10.070;2023-06-01T11:02:48;15.68;;;12.77;;
63738;SDS011;68816;45.558;10.070;2023-06-01T11:05:35;17.08;;;13.10;;
63738;SDS011;68816;45.558;10.070;2023-06-01T11:08:06;16.63;;;13.68;;
63738;SDS011;68816;45.558;10.070;2023-06-01T11:13:31;20.13;;;15.70;;
63738;SDS011;68816;45.558;10.070;2023-06-01T11:21:10;19.38;;;13.70;;
63738;SDS011;68816;45.558;10.070;2023-06-01T11:24:08;20.67;;;12.93;;
63738;SDS011;68816;45.558;10.070;2023-06-01T11:26:51;18.63;;;13.90;;
63738;SDS011;68816;45.558;10.070;2023-06-01T11:29:20;18.85;;;12.95;;
63738;SDS011;68816;45.558;10.070;2023-06-01T11:31:54;17.77;;;14.05;;
63738;SDS011;68816;45.558;10.070;2023-06-01T11:34:28;16.80;;;12.90;;
63738;SDS011;68816;45.558;10.070;2023-06-01T11:37:13;16.27;;;13.20;;
63738;SDS011;68816;45.558;10.070;2023-06-01T11:39:40;19.98;;;12.63;;
63738;SDS011;68816;45.558;10.070;2023-06-01T11:42:35;16.05;;;12.35;;
63738;SDS011;68816;45.558;10.070;2023-06-01T11:45:01;14.82;;;13.05;;
63738;SDS011;68816;45.558;10.070;2023-06-01T11:47:30;17.33;;;11.90;;
63738;SDS011;68816;45.558;10.070;2023-06-01T11:49:56;18.88;;;13.10;;
63738;SDS011;68816;45.558;10.070;2023-06-01T11:52:21;17.65;;;14.68;;
63738;SDS011;68816;45.558;10.070;2023-06-01T11:55:09;19.02;;;14.40;;
63738;SDS011;68816;45.558;10.070;2023-06-01T11:57:35;16.20;;;13.90;;
63738;SDS011;68816;45.558;10.070;2023-06-01T12:00:09;16.20;;;12.98;;
63738;SDS011;68816;45.558;10.070;2023-06-01T12:02:38;17.58;;;12.68;;
63738;SDS011;68816;45.558;10.070;2023-06-01T12:05:05;17.33;;;13.90;;
63738;SDS011;68816;45.558;10.070;2023-06-01T12:07:51;18.75;;;14.90;;
63738;SDS011;68816;45.558;10.070;2023-06-01T12:10:19;21.17;;;15.13;;
63738;SDS011;68816;45.558;10.070;2023-06-01T12:12:46;22.45;;;15.82;;
63738;SDS011;68816;45.558;10.070;2023-06-01T12:15:16;19.05;;;14.18;;
63738;SDS011;68816;45.558;10.070;2023-06-01T12:17:46;18.98;;;15.18;;
63738;SDS011;68816;45.558;10.070;2023-06-01T12:20:36;18.08;;;14.45;;
63738;SDS011;68816;45.558;10.070;2023-06-01T12:25:47;19.35;;;14.27;;
63738;SDS011;68816;45.558;10.070;2023-06-01T12:28:23;18.88;;;13.65;;
63738;SDS011;68816;45.558;10.070;2023-06-01T12:31:15;19.35;;;14.40;;
63738;SDS011;68816;45.558;10.070;2023-06-01T12:33:41;25.13;;;14.80;;
63738;SDS011;68816;45.558;10.070;2023-06-01T12:36:09;19.73;;;14.10;;
63738;SDS011;68816;45.558;10.070;2023-06-01T12:38:53;17.58;;;14.27;;
63738;SDS011;68816;45.558;10.070;2023-06-01T12:41:19;18.38;;;14.82;;
63738;SDS011;68816;45.558;10.070;2023-06-01T12:43:49;18.25;;;15.52;;
63738;SDS011;68816;45.558;10.070;2023-06-01T12:46:21;18.13;;;14.00;;
63738;SDS011;68816;45.558;10.070;2023-06-01T12:49:16;17.23;;;15.32;;
63738;SDS011;68816;45.558;10.070;2023-06-01T12:51:43;16.50;;;14.35;;
63738;SDS011;68816;45.558;10.070;2023-06-01T12:54:09;17.13;;;14.15;;
63738;SDS011;68816;45.558;10.070;2023-06-01T12:56:34;18.30;;;15.75;;
63738;SDS011;68816;45.558;10.070;2023-06-01T12:59:01;18.23;;;13.63;;
63738;SDS011;68816;45.558;10.070;2023-06-01T13:01:31;21.55;;;16.15;;
63738;SDS011;68816;45.558;10.070;2023-06-01T13:03:56;17.55;;;15.65;;
63738;SDS011;68816;45.558;10.070;2023-06-01T13:06:22;16.95;;;15.18;;
63738;SDS011;68816;45.558;10.070;2023-06-01T13:08:49;18.40;;;13.40;;
63738;SDS011;68816;45.558;10.070;2023-06-01T13:11:53;15.82;;;13.68;;
63738;SDS011;68816;45.558;10.070;2023-06-01T13:14:19;22.08;;;13.88;;
63738;SDS011;68816;45.558;10.070;2023-06-01T13:16:45;20.60;;;14.93;;
63738;SDS011;68816;45.558;10.070;2023-06-01T13:19:12;19.73;;;14.73;;
63738;SDS011;68816;45.558;10.070;2023-06-01T13:21:38;15.10;;;13.48;;
63738;SDS011;68816;45.558;10.070;2023-06-01T13:24:03;16.90;;;14.05;;
63738;SDS011;68816;45.558;10.070;2023-06-01T13:26:31;17.17;;;14.57;;
63738;SDS011;68816;45.558;10.070;2023-06-01T13:28:57;17.58;;;14.45;;
63738;SDS011;68816;45.558;10.070;2023-06-01T13:31:22;20.67;;;15.05;;
63738;SDS011;68816;45.558;10.070;2023-06-01T13:33:48;17.90;;;15.50;;
63738;SDS011;68816;45.558;10.070;2023-06-01T13:36:13;16.92;;;15.13;;
63738;SDS011;68816;45.558;10.070;2023-06-01T13:38:40;21.42;;;15.45;;
63738;SDS011;68816;45.558;10.070;2023-06-01T13:41:07;18.52;;;16.10;;
63738;SDS011;68816;45.558;10.070;2023-06-01T13:43:34;21.27;;;16.10;;
63738;SDS011;68816;45.558;10.070;2023-06-01T13:45:59;19.05;;;15.23;;
63738;SDS011;68816;45.558;10.070;2023-06-01T13:48:25;16.67;;;13.95;;
63738;SDS011;68816;45.558;10.070;2023-06-01T13:50:50;18.25;;;13.43;;
63738;SDS011;68816;45.558;10.070;2023-06-01T13:53:17;17.30;;;14.65;;
63738;SDS011;68816;45.558;10.070;2023-06-01T13:55:42;18.33;;;16.42;;
63738;SDS011;68816;45.558;10.070;2023-06-01T13:58:08;19.85;;;14.50;;
63738;SDS011;68816;45.558;10.070;2023-06-01T14:00:33;17.35;;;14.68;;
63738;SDS011;68816;45.558;10.070;2023-06-01T14:02:59;18.38;;;14.70;;
63738;SDS011;68816;45.558;10.070;2023-06-01T14:05:25;17.50;;;14.27;;
63738;SDS011;68816;45.558;10.070;2023-06-01T14:07:50;16.95;;;14.15;;
63738;SDS011;68816;45.558;10.070;2023-06-01T14:10:16;20.50;;;14.00;;
63738;SDS011;68816;45.558;10.070;2023-06-01T14:12:42;17.80;;;14.75;;
63738;SDS011;68816;45.558;10.070;2023-06-01T14:15:09;18.00;;;14.38;;
63738;SDS011;68816;45.558;10.070;2023-06-01T14:17:35;18.80;;;13.95;;
63738;SDS011;68816;45.558;10.070;2023-06-01T14:20:01;17.52;;;13.93;;
63738;SDS011;68816;45.558;10.070;2023-06-01T14:22:26;20.10;;;16.20;;
63738;SDS011;68816;45.558;10.070;2023-06-01T14:24:51;20.30;;;15.85;;
63738;SDS011;68816;45.558;10.070;2023-06-01T14:27:17;20.92;;;15.63;;
63738;SDS011;68816;45.558;10.070;2023-06-01T14:29:45;18.52;;;14.75;;
63738;SDS011;68816;45.558;10.070;2023-06-01T14:32:19;20.38;;;15.73;;
63738;SDS011;68816;45.558;10.070;2023-06-01T14:34:44;19.95;;;15.23;;
63738;SDS011;68816;45.558;10.070;2023-06-01T14:37:11;17.33;;;13.88;;
63738;SDS011;68816;45.558;10.070;2023-06-01T14:39:42;19.05;;;15.70;;
63738;SDS011;68816;45.558;10.070;2023-06-01T14:42:18;22.50;;;14.63;;
63738;SDS011;68816;45.558;10.070;2023-06-01T14:44:44;15.55;;;13.88;;
63738;SDS011;68816;45.558;10.070;2023-06-01T14:47:10;21.73;;;15.05;;
63738;SDS011;68816;45.558;10.070;2023-06-01T14:49:39;17.25;;;13.32;;
63738;SDS011;68816;45.558;10.070;2023-06-01T14:52:05;17.92;;;13.32;;
63738;SDS011;68816;45.558;10.070;2023-06-01T14:54:36;18.63;;;13.57;;
63738;SDS011;68816;45.558;10.070;2023-06-01T14:57:01;18.92;;;14.70;;
63738;SDS011;68816;45.558;10.070;2023-06-01T14:59:28;19.05;;;15.38;;
63738;SDS011;68816;45.558;10.070;2023-06-01T15:01:57;17.95;;;14.23;;
63738;SDS011;68816;45.558;10.070;2023-06-01T15:04:25;17.45;;;14.70;;
63738;SDS011;68816;45.558;10.070;2023-06-01T15:07:15;19.63;;;14.70;;
63738;SDS011;68816;45.558;10.070;2023-06-01T15:09:44;16.10;;;13.25;;
63738;SDS011;68816;45.558;10.070;2023-06-01T15:12:14;14.20;;;12.73;;
63738;SDS011;68816;45.558;10.070;2023-06-01T15:14:39;14.60;;;13.07;;
63738;SDS011;68816;45.558;10.070;2023-06-01T15:17:10;15.95;;;12.45;;